sensor_id;sensor_type;location;lat;lon;timestamp;temperature;humidity
27795;DHT22;15176;50.844;4.412;2022-07-29T00:02:04;22.30;85.20
27795;DHT22;15176;50.844;4.412;2022-07-29T00:04:29;22.50;85.30
27795;DHT22;15176;50.844;4.412;2022-07-29T00:06:55;22.70;83.90
27795;DHT22;15176;50.844;4.412;2022-07-29T00:09:20;22.60;84.60
27795;DHT22;15176;50.844;4.412;2022-07-29T00:11:46;22.30;85.40
27795;DHT22;15176;50.844;4.412;2022-07-29T00:14:12;22.40;85.90
27795;DHT22;15176;50.844;4.412;2022-07-29T00:16:37;22.40;85.80
27795;DHT22;15176;50.844;4.412;2022-07-29T00:19:04;22.20;86.80
27795;DHT22;15176;50.844;4.412;2022-07-29T00:21:29;22.20;87.90
27795;DHT22;15176;50.844;4.412;2022-07-29T00:23:55;22.20;87.80
27795;DHT22;15176;50.844;4.412;2022-07-29T00:26:21;22.10;88.70
27795;DHT22;15176;50.844;4.412;2022-07-29T00:28:46;22.00;89.30
27795;DHT22;15176;50.844;4.412;2022-07-29T00:31:12;22.00;89.40
27795;DHT22;15176;50.844;4.412;2022-07-29T00:33:38;22.10;89.00
27795;DHT22;15176;50.844;4.412;2022-07-29T00:36:04;22.00;89.70
27795;DHT22;15176;50.844;4.412;2022-07-29T00:38:29;22.10;90.10
27795;DHT22;15176;50.844;4.412;2022-07-29T00:40:55;22.20;89.70
27795;DHT22;15176;50.844;4.412;2022-07-29T00:43:21;22.20;89.00
27795;DHT22;15176;50.844;4.412;2022-07-29T00:45:46;21.90;90.20
27795;DHT22;15176;50.844;4.412;2022-07-29T00:48:12;21.80;90.60
27795;DHT22;15176;50.844;4.412;2022-07-29T00:50:38;21.80;91.00
27795;DHT22;15176;50.844;4.412;2022-07-29T00:53:06;21.90;91.00
27795;DHT22;15176;50.844;4.412;2022-07-29T00:55:31;21.90;91.00
27795;DHT22;15176;50.844;4.412;2022-07-29T00:57:58;22.10;90.40
27795;DHT22;15176;50.844;4.412;2022-07-29T01:00:25;21.90;90.70
27795;DHT22;15176;50.844;4.412;2022-07-29T01:02:51;21.60;92.00
27795;DHT22;15176;50.844;4.412;2022-07-29T01:05:19;21.60;92.00
27795;DHT22;15176;50.844;4.412;2022-07-29T01:07:46;21.70;92.10
27795;DHT22;15176;50.844;4.412;2022-07-29T01:10:13;21.60;92.30
27795;DHT22;15176;50.844;4.412;2022-07-29T01:12:40;21.70;92.20
27795;DHT22;15176;50.844;4.412;2022-07-29T01:15:08;21.70;92.40
27795;DHT22;15176;50.844;4.412;2022-07-29T01:31:23;21.90;92.40
27795;DHT22;15176;50.844;4.412;2022-07-29T01:33:55;21.80;92.90
27795;DHT22;15176;50.844;4.412;2022-07-29T01:36:40;21.90;92.50
27795;DHT22;15176;50.844;4.412;2022-07-29T01:39:19;21.90;92.50
27795;DHT22;15176;50.844;4.412;2022-07-29T01:42:08;22.10;92.60
27795;DHT22;15176;50.844;4.412;2022-07-29T01:44:42;22.00;92.10
27795;DHT22;15176;50.844;4.412;2022-07-29T01:47:13;21.70;93.00
27795;DHT22;15176;50.844;4.412;2022-07-29T01:49:45;21.60;93.70
27795;DHT22;15176;50.844;4.412;2022-07-29T01:52:19;21.60;93.30
27795;DHT22;15176;50.844;4.412;2022-07-29T01:54:50;21.80;93.20
27795;DHT22;15176;50.844;4.412;2022-07-29T01:57:19;21.70;93.10
27795;DHT22;15176;50.844;4.412;2022-07-29T01:59:47;21.60;93.70
27795;DHT22;15176;50.844;4.412;2022-07-29T02:02:18;21.60;94.30
27795;DHT22;15176;50.844;4.412;2022-07-29T02:04:46;21.50;94.60
27795;DHT22;15176;50.844;4.412;2022-07-29T02:07:19;21.50;94.50
27795;DHT22;15176;50.844;4.412;2022-07-29T02:09:45;21.50;94.10
27795;DHT22;15176;50.844;4.412;2022-07-29T02:12:14;21.40;94.20
27795;DHT22;15176;50.844;4.412;2022-07-29T02:14:47;21.30;94.70
27795;DHT22;15176;50.844;4.412;2022-07-29T02:17:16;21.30;95.40
27795;DHT22;15176;50.844;4.412;2022-07-29T02:19:45;21.10;95.20
27795;DHT22;15176;50.844;4.412;2022-07-29T02:22:13;21.00;95.50
27795;DHT22;15176;50.844;4.412;2022-07-29T02:24:40;21.00;96.10
27795;DHT22;15176;50.844;4.412;2022-07-29T02:27:08;21.20;95.50
27795;DHT22;15176;50.844;4.412;2022-07-29T02:29:34;21.10;95.60
27795;DHT22;15176;50.844;4.412;2022-07-29T02:32:02;21.10;96.80
27795;DHT22;15176;50.844;4.412;2022-07-29T02:34:28;21.10;96.50
27795;DHT22;15176;50.844;4.412;2022-07-29T02:36:55;21.10;96.30
27795;DHT22;15176;50.844;4.412;2022-07-29T02:39:22;21.10;96.00
27795;DHT22;15176;50.844;4.412;2022-07-29T02:41:57;21.30;96.20
27795;DHT22;15176;50.844;4.412;2022-07-29T02:44:25;21.20;96.20
27795;DHT22;15176;50.844;4.412;2022-07-29T02:47:05;21.20;96.40
27795;DHT22;15176;50.844;4.412;2022-07-29T02:52:26;21.10;96.80
27795;DHT22;15176;50.844;4.412;2022-07-29T02:55:04;21.00;96.80
27795;DHT22;15176;50.844;4.412;2022-07-29T02:57:37;21.20;96.70
27795;DHT22;15176;50.844;4.412;2022-07-29T03:00:07;21.30;96.70
27795;DHT22;15176;50.844;4.412;2022-07-29T03:02:36;21.30;96.30
27795;DHT22;15176;50.844;4.412;2022-07-29T03:05:04;21.30;96.00
27795;DHT22;15176;50.844;4.412;2022-07-29T03:07:31;21.30;96.20
27795;DHT22;15176;50.844;4.412;2022-07-29T03:09:59;21.20;96.50
27795;DHT22;15176;50.844;4.412;2022-07-29T03:12:25;21.20;96.50
27795;DHT22;15176;50.844;4.412;2022-07-29T03:14:52;21.10;96.80
27795;DHT22;15176;50.844;4.412;2022-07-29T03:17:18;21.10;96.80
27795;DHT22;15176;50.844;4.412;2022-07-29T03:19:44;21.10;96.90
27795;DHT22;15176;50.844;4.412;2022-07-29T03:22:11;21.10;97.00
27795;DHT22;15176;50.844;4.412;2022-07-29T03:24:37;21.10;97.40
27795;DHT22;15176;50.844;4.412;2022-07-29T03:27:03;21.20;96.80
27795;DHT22;15176;50.844;4.412;2022-07-29T03:29:29;21.20;96.70
27795;DHT22;15176;50.844;4.412;2022-07-29T03:31:56;20.90;97.40
27795;DHT22;15176;50.844;4.412;2022-07-29T03:34:22;20.80;97.70
27795;DHT22;15176;50.844;4.412;2022-07-29T03:36:48;21.00;97.20
27795;DHT22;15176;50.844;4.412;2022-07-29T03:39:18;20.80;98.00
27795;DHT22;15176;50.844;4.412;2022-07-29T03:41:47;20.80;98.30
27795;DHT22;15176;50.844;4.412;2022-07-29T03:44:15;20.90;98.40
27795;DHT22;15176;50.844;4.412;2022-07-29T03:46:43;20.90;98.40
27795;DHT22;15176;50.844;4.412;2022-07-29T03:49:09;20.80;98.60
27795;DHT22;15176;50.844;4.412;2022-07-29T03:51:36;21.00;99.30
27795;DHT22;15176;50.844;4.412;2022-07-29T03:54:03;21.00;98.50
27795;DHT22;15176;50.844;4.412;2022-07-29T03:56:29;21.00;98.20
27795;DHT22;15176;50.844;4.412;2022-07-29T03:58:58;21.00;98.70
27795;DHT22;15176;50.844;4.412;2022-07-29T04:01:24;21.20;99.00
27795;DHT22;15176;50.844;4.412;2022-07-29T04:03:51;21.20;98.70
27795;DHT22;15176;50.844;4.412;2022-07-29T04:06:17;21.20;98.40
27795;DHT22;15176;50.844;4.412;2022-07-29T04:08:43;21.10;98.20
27795;DHT22;15176;50.844;4.412;2022-07-29T04:11:08;21.10;97.70
27795;DHT22;15176;50.844;4.412;2022-07-29T04:13:35;21.10;97.90
27795;DHT22;15176;50.844;4.412;2022-07-29T04:16:00;21.10;98.00
27795;DHT22;15176;50.844;4.412;2022-07-29T04:18:26;21.10;98.20
27795;DHT22;15176;50.844;4.412;2022-07-29T04:20:52;21.00;98.10
27795;DHT22;15176;50.844;4.412;2022-07-29T04:23:17;20.90;98.50
27795;DHT22;15176;50.844;4.412;2022-07-29T04:25:43;20.80;98.90
27795;DHT22;15176;50.844;4.412;2022-07-29T04:28:09;20.90;99.20
27795;DHT22;15176;50.844;4.412;2022-07-29T04:30:37;20.90;99.00
27795;DHT22;15176;50.844;4.412;2022-07-29T04:33:04;20.90;99.20
27795;DHT22;15176;50.844;4.412;2022-07-29T04:35:34;20.90;99.10
27795;DHT22;15176;50.844;4.412;2022-07-29T04:38:00;20.80;99.20
27795;DHT22;15176;50.844;4.412;2022-07-29T04:40:25;20.80;99.80
27795;DHT22;15176;50.844;4.412;2022-07-29T04:42:51;20.80;99.90
27795;DHT22;15176;50.844;4.412;2022-07-29T04:45:17;20.90;99.70
27795;DHT22;15176;50.844;4.412;2022-07-29T04:47:42;21.00;99.40
27795;DHT22;15176;50.844;4.412;2022-07-29T04:50:09;21.00;99.90
27795;DHT22;15176;50.844;4.412;2022-07-29T04:52:34;21.00;99.90
27795;DHT22;15176;50.844;4.412;2022-07-29T04:55:01;20.90;99.90
27795;DHT22;15176;50.844;4.412;2022-07-29T04:57:26;20.90;99.70
27795;DHT22;15176;50.844;4.412;2022-07-29T04:59:52;20.90;99.90
27795;DHT22;15176;50.844;4.412;2022-07-29T05:02:18;20.90;99.90
27795;DHT22;15176;50.844;4.412;2022-07-29T05:04:43;20.70;99.90
27795;DHT22;15176;50.844;4.412;2022-07-29T05:07:09;20.80;99.90
27795;DHT22;15176;50.844;4.412;2022-07-29T05:09:34;20.70;99.90
27795;DHT22;15176;50.844;4.412;2022-07-29T05:12:00;20.50;99.90
27795;DHT22;15176;50.844;4.412;2022-07-29T05:14:26;20.50;99.90
27795;DHT22;15176;50.844;4.412;2022-07-29T05:16:51;20.30;99.90
27795;DHT22;15176;50.844;4.412;2022-07-29T05:19:18;20.40;99.90
27795;DHT22;15176;50.844;4.412;2022-07-29T05:21:44;20.30;99.90
27795;DHT22;15176;50.844;4.412;2022-07-29T05:24:10;20.40;99.90
27795;DHT22;15176;50.844;4.412;2022-07-29T05:26:36;20.40;99.90
27795;DHT22;15176;50.844;4.412;2022-07-29T05:29:01;20.70;99.90
27795;DHT22;15176;50.844;4.412;2022-07-29T05:31:27;20.60;99.90
27795;DHT22;15176;50.844;4.412;2022-07-29T05:33:52;20.50;99.90
27795;DHT22;15176;50.844;4.412;2022-07-29T05:36:19;20.60;99.90
27795;DHT22;15176;50.844;4.412;2022-07-29T05:38:44;20.50;99.90
27795;DHT22;15176;50.844;4.412;2022-07-29T05:41:10;20.60;99.90
27795;DHT22;15176;50.844;4.412;2022-07-29T05:43:36;20.60;99.90
27795;DHT22;15176;50.844;4.412;2022-07-29T05:46:01;20.70;99.90
27795;DHT22;15176;50.844;4.412;2022-07-29T05:48:27;20.60;99.90
27795;DHT22;15176;50.844;4.412;2022-07-29T05:50:53;20.60;99.90
27795;DHT22;15176;50.844;4.412;2022-07-29T05:53:18;20.60;99.90
27795;DHT22;15176;50.844;4.412;2022-07-29T05:55:44;20.70;99.90
27795;DHT22;15176;50.844;4.412;2022-07-29T05:58:10;21.00;99.90
27795;DHT22;15176;50.844;4.412;2022-07-29T06:00:35;20.70;99.90
27795;DHT22;15176;50.844;4.412;2022-07-29T06:03:01;20.60;99.90
27795;DHT22;15176;50.844;4.412;2022-07-29T06:05:27;20.60;99.90
27795;DHT22;15176;50.844;4.412;2022-07-29T06:07:52;20.60;99.90
27795;DHT22;15176;50.844;4.412;2022-07-29T06:10:18;20.80;99.90
27795;DHT22;15176;50.844;4.412;2022-07-29T06:12:44;20.50;99.90
27795;DHT22;15176;50.844;4.412;2022-07-29T06:15:10;20.50;99.90
27795;DHT22;15176;50.844;4.412;2022-07-29T06:17:35;20.50;99.90
27795;DHT22;15176;50.844;4.412;2022-07-29T06:20:02;20.70;99.90
27795;DHT22;15176;50.844;4.412;2022-07-29T06:22:28;20.70;99.90
27795;DHT22;15176;50.844;4.412;2022-07-29T06:24:54;20.80;99.90
27795;DHT22;15176;50.844;4.412;2022-07-29T06:27:19;20.70;99.90
27795;DHT22;15176;50.844;4.412;2022-07-29T06:29:45;20.60;99.90
27795;DHT22;15176;50.844;4.412;2022-07-29T06:32:10;20.60;99.90
27795;DHT22;15176;50.844;4.412;2022-07-29T06:34:36;20.70;99.90
27795;DHT22;15176;50.844;4.412;2022-07-29T06:37:08;20.80;99.90
27795;DHT22;15176;50.844;4.412;2022-07-29T06:39:35;20.90;99.90
27795;DHT22;15176;50.844;4.412;2022-07-29T06:42:01;21.10;99.90
27795;DHT22;15176;50.844;4.412;2022-07-29T06:44:27;21.30;99.90
27795;DHT22;15176;50.844;4.412;2022-07-29T06:46:53;21.40;99.90
27795;DHT22;15176;50.844;4.412;2022-07-29T06:49:20;21.30;99.90
27795;DHT22;15176;50.844;4.412;2022-07-29T06:51:45;21.50;99.90
27795;DHT22;15176;50.844;4.412;2022-07-29T06:54:11;21.70;99.90
27795;DHT22;15176;50.844;4.412;2022-07-29T06:56:37;21.90;99.90
27795;DHT22;15176;50.844;4.412;2022-07-29T06:59:04;21.90;99.90
27795;DHT22;15176;50.844;4.412;2022-07-29T07:01:29;22.20;99.90
27795;DHT22;15176;50.844;4.412;2022-07-29T07:03:55;22.30;99.90
27795;DHT22;15176;50.844;4.412;2022-07-29T07:06:21;22.40;99.90
27795;DHT22;15176;50.844;4.412;2022-07-29T07:08:47;22.70;99.90
27795;DHT22;15176;50.844;4.412;2022-07-29T07:11:13;22.90;99.50
27795;DHT22;15176;50.844;4.412;2022-07-29T07:13:38;23.10;99.30
27795;DHT22;15176;50.844;4.412;2022-07-29T07:16:04;23.50;97.90
27795;DHT22;15176;50.844;4.412;2022-07-29T07:18:30;23.60;96.90
27795;DHT22;15176;50.844;4.412;2022-07-29T07:20:56;23.80;97.20
27795;DHT22;15176;50.844;4.412;2022-07-29T07:23:22;23.90;96.60
27795;DHT22;15176;50.844;4.412;2022-07-29T07:25:48;23.80;96.30
27795;DHT22;15176;50.844;4.412;2022-07-29T07:28:14;24.10;95.70
27795;DHT22;15176;50.844;4.412;2022-07-29T07:30:39;23.90;95.90
27795;DHT22;15176;50.844;4.412;2022-07-29T07:33:05;24.20;96.40
27795;DHT22;15176;50.844;4.412;2022-07-29T07:35:31;24.20;95.50
27795;DHT22;15176;50.844;4.412;2022-07-29T07:37:57;24.30;95.60
27795;DHT22;15176;50.844;4.412;2022-07-29T07:40:23;24.30;94.70
27795;DHT22;15176;50.844;4.412;2022-07-29T07:42:48;24.40;94.90
27795;DHT22;15176;50.844;4.412;2022-07-29T07:45:14;24.40;94.70
27795;DHT22;15176;50.844;4.412;2022-07-29T07:47:39;24.40;94.80
27795;DHT22;15176;50.844;4.412;2022-07-29T07:50:07;24.20;94.70
27795;DHT22;15176;50.844;4.412;2022-07-29T07:52:33;24.20;95.10
27795;DHT22;15176;50.844;4.412;2022-07-29T07:54:59;24.30;94.40
27795;DHT22;15176;50.844;4.412;2022-07-29T07:57:26;24.20;96.00
27795;DHT22;15176;50.844;4.412;2022-07-29T07:59:51;24.40;95.00
27795;DHT22;15176;50.844;4.412;2022-07-29T08:02:17;24.50;94.80
27795;DHT22;15176;50.844;4.412;2022-07-29T08:04:43;24.80;93.80
27795;DHT22;15176;50.844;4.412;2022-07-29T08:07:13;25.30;93.30
27795;DHT22;15176;50.844;4.412;2022-07-29T08:09:40;25.50;92.00
27795;DHT22;15176;50.844;4.412;2022-07-29T08:12:06;25.60;91.40
27795;DHT22;15176;50.844;4.412;2022-07-29T08:14:32;25.50;91.80
27795;DHT22;15176;50.844;4.412;2022-07-29T08:16:58;25.60;91.50
27795;DHT22;15176;50.844;4.412;2022-07-29T08:19:24;25.70;91.30
27795;DHT22;15176;50.844;4.412;2022-07-29T08:21:49;26.10;90.80
27795;DHT22;15176;50.844;4.412;2022-07-29T08:24:15;26.40;90.20
27795;DHT22;15176;50.844;4.412;2022-07-29T08:26:52;26.30;90.00
27795;DHT22;15176;50.844;4.412;2022-07-29T08:29:17;26.40;89.20
27795;DHT22;15176;50.844;4.412;2022-07-29T08:31:43;26.30;88.70
27795;DHT22;15176;50.844;4.412;2022-07-29T08:34:09;26.60;89.30
27795;DHT22;15176;50.844;4.412;2022-07-29T08:36:34;26.90;89.00
27795;DHT22;15176;50.844;4.412;2022-07-29T08:39:01;27.20;86.20
27795;DHT22;15176;50.844;4.412;2022-07-29T08:41:26;27.10;83.90
27795;DHT22;15176;50.844;4.412;2022-07-29T08:43:53;27.30;84.90
27795;DHT22;15176;50.844;4.412;2022-07-29T08:46:19;27.30;83.50
27795;DHT22;15176;50.844;4.412;2022-07-29T08:48:45;27.30;83.50
27795;DHT22;15176;50.844;4.412;2022-07-29T08:51:18;27.40;85.10
27795;DHT22;15176;50.844;4.412;2022-07-29T08:53:47;27.50;82.60
27795;DHT22;15176;50.844;4.412;2022-07-29T08:56:14;27.70;83.00
27795;DHT22;15176;50.844;4.412;2022-07-29T08:58:43;28.00;81.00
27795;DHT22;15176;50.844;4.412;2022-07-29T09:01:10;28.30;79.40
27795;DHT22;15176;50.844;4.412;2022-07-29T09:03:38;28.40;78.90
27795;DHT22;15176;50.844;4.412;2022-07-29T09:06:05;28.60;77.00
27795;DHT22;15176;50.844;4.412;2022-07-29T09:08:32;28.50;77.50
27795;DHT22;15176;50.844;4.412;2022-07-29T09:10:58;28.90;75.30
27795;DHT22;15176;50.844;4.412;2022-07-29T09:13:26;29.20;73.90
27795;DHT22;15176;50.844;4.412;2022-07-29T09:15:52;29.20;72.20
27795;DHT22;15176;50.844;4.412;2022-07-29T09:21:09;29.30;69.90
27795;DHT22;15176;50.844;4.412;2022-07-29T09:24:00;29.40;70.40
27795;DHT22;15176;50.844;4.412;2022-07-29T09:26:31;29.90;67.80
27795;DHT22;15176;50.844;4.412;2022-07-29T09:28:58;29.90;65.70
27795;DHT22;15176;50.844;4.412;2022-07-29T09:31:34;30.20;66.10
27795;DHT22;15176;50.844;4.412;2022-07-29T09:34:00;30.50;63.70
27795;DHT22;15176;50.844;4.412;2022-07-29T09:36:26;30.60;64.10
27795;DHT22;15176;50.844;4.412;2022-07-29T09:38:59;30.60;62.40
27795;DHT22;15176;50.844;4.412;2022-07-29T09:41:27;30.70;62.40
27795;DHT22;15176;50.844;4.412;2022-07-29T09:43:59;30.90;61.50
27795;DHT22;15176;50.844;4.412;2022-07-29T09:46:25;31.00;60.30
27795;DHT22;15176;50.844;4.412;2022-07-29T09:49:05;31.20;58.90
27795;DHT22;15176;50.844;4.412;2022-07-29T09:51:31;31.20;58.30
27795;DHT22;15176;50.844;4.412;2022-07-29T09:53:56;31.40;57.50
27795;DHT22;15176;50.844;4.412;2022-07-29T09:56:37;31.40;56.40
27795;DHT22;15176;50.844;4.412;2022-07-29T09:59:08;31.00;57.40
27795;DHT22;15176;50.844;4.412;2022-07-29T10:01:34;31.30;56.50
27795;DHT22;15176;50.844;4.412;2022-07-29T10:04:01;31.10;56.20
27795;DHT22;15176;50.844;4.412;2022-07-29T10:06:27;31.50;56.80
27795;DHT22;15176;50.844;4.412;2022-07-29T10:08:53;31.40;57.10
27795;DHT22;15176;50.844;4.412;2022-07-29T10:11:19;31.60;56.10
27795;DHT22;15176;50.844;4.412;2022-07-29T10:13:47;32.00;56.30
27795;DHT22;15176;50.844;4.412;2022-07-29T10:16:14;32.40;56.30
27795;DHT22;15176;50.844;4.412;2022-07-29T10:18:42;32.40;54.70
27795;DHT22;15176;50.844;4.412;2022-07-29T10:21:08;32.30;54.70
27795;DHT22;15176;50.844;4.412;2022-07-29T10:23:34;32.60;54.20
27795;DHT22;15176;50.844;4.412;2022-07-29T10:26:03;32.20;54.40
27795;DHT22;15176;50.844;4.412;2022-07-29T10:28:32;32.50;53.90
27795;DHT22;15176;50.844;4.412;2022-07-29T10:31:23;32.60;54.00
27795;DHT22;15176;50.844;4.412;2022-07-29T10:44:44;33.00;52.90
27795;DHT22;15176;50.844;4.412;2022-07-29T10:47:29;33.30;50.70
27795;DHT22;15176;50.844;4.412;2022-07-29T10:50:00;33.40;50.00
27795;DHT22;15176;50.844;4.412;2022-07-29T10:55:38;33.30;50.20
27795;DHT22;15176;50.844;4.412;2022-07-29T10:58:20;33.30;50.80
27795;DHT22;15176;50.844;4.412;2022-07-29T11:00:48;32.90;49.70
27795;DHT22;15176;50.844;4.412;2022-07-29T11:06:00;33.20;48.80
27795;DHT22;15176;50.844;4.412;2022-07-29T11:08:26;33.40;48.30
27795;DHT22;15176;50.844;4.412;2022-07-29T11:10:53;32.60;48.80
27795;DHT22;15176;50.844;4.412;2022-07-29T11:13:50;32.80;48.90
27795;DHT22;15176;50.844;4.412;2022-07-29T11:16:19;32.50;47.90
27795;DHT22;15176;50.844;4.412;2022-07-29T11:21:35;32.30;49.80
27795;DHT22;15176;50.844;4.412;2022-07-29T11:26:38;32.70;46.90
27795;DHT22;15176;50.844;4.412;2022-07-29T11:29:20;32.80;47.80
27795;DHT22;15176;50.844;4.412;2022-07-29T11:31:50;32.90;47.80
27795;DHT22;15176;50.844;4.412;2022-07-29T11:34:31;33.20;48.00
27795;DHT22;15176;50.844;4.412;2022-07-29T11:39:35;33.60;47.40
27795;DHT22;15176;50.844;4.412;2022-07-29T11:44:55;32.80;47.30
27795;DHT22;15176;50.844;4.412;2022-07-29T11:47:22;32.80;47.70
27795;DHT22;15176;50.844;4.412;2022-07-29T11:49:48;33.10;46.70
27795;DHT22;15176;50.844;4.412;2022-07-29T11:52:14;33.40;46.60
27795;DHT22;15176;50.844;4.412;2022-07-29T11:54:42;33.50;45.30
27795;DHT22;15176;50.844;4.412;2022-07-29T11:57:08;33.40;45.20
27795;DHT22;15176;50.844;4.412;2022-07-29T11:59:39;32.50;45.80
27795;DHT22;15176;50.844;4.412;2022-07-29T12:02:07;32.20;47.70
27795;DHT22;15176;50.844;4.412;2022-07-29T12:04:33;32.20;48.50
27795;DHT22;15176;50.844;4.412;2022-07-29T12:07:00;32.50;48.40
27795;DHT22;15176;50.844;4.412;2022-07-29T12:09:26;32.50;48.00
27795;DHT22;15176;50.844;4.412;2022-07-29T12:11:58;32.50;47.70
27795;DHT22;15176;50.844;4.412;2022-07-29T12:16:51;32.50;47.70
27795;DHT22;15176;50.844;4.412;2022-07-29T12:19:16;31.90;47.80
27795;DHT22;15176;50.844;4.412;2022-07-29T12:21:46;31.60;48.90
27795;DHT22;15176;50.844;4.412;2022-07-29T12:24:12;31.70;49.30
27795;DHT22;15176;50.844;4.412;2022-07-29T12:26:49;31.80;48.30
27795;DHT22;15176;50.844;4.412;2022-07-29T12:29:16;32.10;47.50
27795;DHT22;15176;50.844;4.412;2022-07-29T12:31:42;31.90;48.30
27795;DHT22;15176;50.844;4.412;2022-07-29T12:34:10;32.00;48.10
27795;DHT22;15176;50.844;4.412;2022-07-29T12:36:36;32.30;48.20
27795;DHT22;15176;50.844;4.412;2022-07-29T12:39:02;32.60;47.60
27795;DHT22;15176;50.844;4.412;2022-07-29T12:41:28;32.80;47.10
27795;DHT22;15176;50.844;4.412;2022-07-29T12:43:55;33.00;46.20
27795;DHT22;15176;50.844;4.412;2022-07-29T12:46:20;33.20;46.80
27795;DHT22;15176;50.844;4.412;2022-07-29T12:48:51;33.10;46.80
27795;DHT22;15176;50.844;4.412;2022-07-29T12:51:31;33.20;46.90
27795;DHT22;15176;50.844;4.412;2022-07-29T12:54:09;33.40;46.00
27795;DHT22;15176;50.844;4.412;2022-07-29T12:56:40;33.50;44.90
27795;DHT22;15176;50.844;4.412;2022-07-29T12:59:20;33.40;46.60
27795;DHT22;15176;50.844;4.412;2022-07-29T13:01:48;33.10;44.90
27795;DHT22;15176;50.844;4.412;2022-07-29T13:04:29;33.50;45.50
27795;DHT22;15176;50.844;4.412;2022-07-29T13:06:59;33.50;44.20
27795;DHT22;15176;50.844;4.412;2022-07-29T13:09:39;33.20;44.80
27795;DHT22;15176;50.844;4.412;2022-07-29T13:12:10;33.40;45.30
27795;DHT22;15176;50.844;4.412;2022-07-29T13:14:41;33.20;44.90
27795;DHT22;15176;50.844;4.412;2022-07-29T13:17:15;32.50;45.90
27795;DHT22;15176;50.844;4.412;2022-07-29T13:22:16;32.10;46.80
27795;DHT22;15176;50.844;4.412;2022-07-29T13:25:00;31.90;46.50
27795;DHT22;15176;50.844;4.412;2022-07-29T13:27:31;31.10;48.50
27795;DHT22;15176;50.844;4.412;2022-07-29T13:30:00;30.60;49.20
27795;DHT22;15176;50.844;4.412;2022-07-29T13:32:27;30.70;49.10
27795;DHT22;15176;50.844;4.412;2022-07-29T13:34:54;30.50;49.00
27795;DHT22;15176;50.844;4.412;2022-07-29T13:37:19;30.50;49.80
27795;DHT22;15176;50.844;4.412;2022-07-29T13:39:45;30.60;49.60
27795;DHT22;15176;50.844;4.412;2022-07-29T13:42:13;30.10;49.50
27795;DHT22;15176;50.844;4.412;2022-07-29T13:44:39;30.00;49.70
27795;DHT22;15176;50.844;4.412;2022-07-29T13:47:06;30.00;50.00
27795;DHT22;15176;50.844;4.412;2022-07-29T13:49:32;29.80;50.30
27795;DHT22;15176;50.844;4.412;2022-07-29T13:51:57;30.40;49.70
27795;DHT22;15176;50.844;4.412;2022-07-29T13:54:23;30.40;49.70
27795;DHT22;15176;50.844;4.412;2022-07-29T13:56:50;30.30;49.20
27795;DHT22;15176;50.844;4.412;2022-07-29T13:59:17;30.30;49.90
27795;DHT22;15176;50.844;4.412;2022-07-29T14:01:43;30.50;50.90
27795;DHT22;15176;50.844;4.412;2022-07-29T14:04:10;30.10;50.70
27795;DHT22;15176;50.844;4.412;2022-07-29T14:06:36;30.30;50.70
27795;DHT22;15176;50.844;4.412;2022-07-29T14:09:03;30.70;50.40
27795;DHT22;15176;50.844;4.412;2022-07-29T14:11:32;30.70;49.00
27795;DHT22;15176;50.844;4.412;2022-07-29T14:13:57;30.50;48.80
27795;DHT22;15176;50.844;4.412;2022-07-29T14:16:23;30.20;49.00
27795;DHT22;15176;50.844;4.412;2022-07-29T14:18:49;30.50;49.60
27795;DHT22;15176;50.844;4.412;2022-07-29T14:21:14;31.00;48.50
27795;DHT22;15176;50.844;4.412;2022-07-29T14:23:40;31.10;48.70
27795;DHT22;15176;50.844;4.412;2022-07-29T14:26:06;31.00;47.80
27795;DHT22;15176;50.844;4.412;2022-07-29T14:28:32;30.70;48.50
27795;DHT22;15176;50.844;4.412;2022-07-29T14:30:58;30.50;49.00
27795;DHT22;15176;50.844;4.412;2022-07-29T14:33:23;30.50;48.20
27795;DHT22;15176;50.844;4.412;2022-07-29T14:35:49;30.80;48.40
27795;DHT22;15176;50.844;4.412;2022-07-29T14:38:14;30.70;49.00
27795;DHT22;15176;50.844;4.412;2022-07-29T14:40:40;30.90;48.30
27795;DHT22;15176;50.844;4.412;2022-07-29T14:43:06;31.00;47.90
27795;DHT22;15176;50.844;4.412;2022-07-29T14:45:31;31.10;47.50
27795;DHT22;15176;50.844;4.412;2022-07-29T14:47:57;31.20;47.30
27795;DHT22;15176;50.844;4.412;2022-07-29T14:50:23;31.20;47.90
27795;DHT22;15176;50.844;4.412;2022-07-29T14:52:48;31.60;46.60
27795;DHT22;15176;50.844;4.412;2022-07-29T14:55:14;31.90;45.50
27795;DHT22;15176;50.844;4.412;2022-07-29T14:57:40;31.40;46.30
27795;DHT22;15176;50.844;4.412;2022-07-29T15:00:06;31.50;47.20
27795;DHT22;15176;50.844;4.412;2022-07-29T15:02:34;31.30;47.50
27795;DHT22;15176;50.844;4.412;2022-07-29T15:05:00;30.80;48.30
27795;DHT22;15176;50.844;4.412;2022-07-29T15:07:26;30.70;48.80
27795;DHT22;15176;50.844;4.412;2022-07-29T15:09:53;30.40;49.30
27795;DHT22;15176;50.844;4.412;2022-07-29T15:12:18;30.40;49.00
27795;DHT22;15176;50.844;4.412;2022-07-29T15:14:44;30.40;49.00
27795;DHT22;15176;50.844;4.412;2022-07-29T15:17:10;30.40;49.10
27795;DHT22;15176;50.844;4.412;2022-07-29T15:19:36;30.30;49.60
27795;DHT22;15176;50.844;4.412;2022-07-29T15:22:02;30.10;50.40
27795;DHT22;15176;50.844;4.412;2022-07-29T15:24:30;30.30;50.10
27795;DHT22;15176;50.844;4.412;2022-07-29T15:26:56;30.60;50.00
27795;DHT22;15176;50.844;4.412;2022-07-29T15:29:21;30.80;49.30
27795;DHT22;15176;50.844;4.412;2022-07-29T15:31:47;30.80;50.00
27795;DHT22;15176;50.844;4.412;2022-07-29T15:34:13;30.30;49.70
27795;DHT22;15176;50.844;4.412;2022-07-29T15:36:38;30.00;49.90
27795;DHT22;15176;50.844;4.412;2022-07-29T15:39:04;29.60;50.70
27795;DHT22;15176;50.844;4.412;2022-07-29T15:41:30;29.80;50.30
27795;DHT22;15176;50.844;4.412;2022-07-29T15:43:56;29.80;50.90
27795;DHT22;15176;50.844;4.412;2022-07-29T15:46:21;30.00;50.60
27795;DHT22;15176;50.844;4.412;2022-07-29T15:48:58;30.00;50.40
27795;DHT22;15176;50.844;4.412;2022-07-29T15:51:24;29.80;50.70
27795;DHT22;15176;50.844;4.412;2022-07-29T15:53:50;30.00;50.00
27795;DHT22;15176;50.844;4.412;2022-07-29T15:56:15;30.40;49.80
27795;DHT22;15176;50.844;4.412;2022-07-29T15:58:41;30.20;48.20
27795;DHT22;15176;50.844;4.412;2022-07-29T16:01:06;30.00;49.00
27795;DHT22;15176;50.844;4.412;2022-07-29T16:03:32;29.90;48.40
27795;DHT22;15176;50.844;4.412;2022-07-29T16:05:58;29.70;49.40
27795;DHT22;15176;50.844;4.412;2022-07-29T16:08:23;29.90;48.90
27795;DHT22;15176;50.844;4.412;2022-07-29T16:10:49;29.90;49.30
27795;DHT22;15176;50.844;4.412;2022-07-29T16:13:15;29.50;50.60
27795;DHT22;15176;50.844;4.412;2022-07-29T16:15:40;29.40;50.90
27795;DHT22;15176;50.844;4.412;2022-07-29T16:18:06;29.50;50.50
27795;DHT22;15176;50.844;4.412;2022-07-29T16:20:33;29.60;51.00
27795;DHT22;15176;50.844;4.412;2022-07-29T16:22:59;29.80;50.10
27795;DHT22;15176;50.844;4.412;2022-07-29T16:25:24;29.70;49.70